createdAt,value
2023-02-12T00:00:45.198Z,26.53
2023-02-12T00:03:13.303Z,28.57
2023-02-12T00:05:42.160Z,26.27
2023-02-12T00:08:11.273Z,26.90
2023-02-12T00:10:43.085Z,28.20
2023-02-12T00:13:11.074Z,26.97
2023-02-12T00:15:41.627Z,27.77
2023-02-12T00:18:09.575Z,28.57
2023-02-12T00:20:38.405Z,27.50
2023-02-12T00:23:06.639Z,26.20
2023-02-12T00:25:34.955Z,25.23
2023-02-12T00:28:03.007Z,29.00
2023-02-12T00:30:30.957Z,27.53
2023-02-12T00:33:00.186Z,28.67
2023-02-12T00:35:28.198Z,26.00
2023-02-12T00:37:56.090Z,26.83
2023-02-12T00:40:24.018Z,29.33
2023-02-12T00:42:51.898Z,27.20
2023-02-12T00:45:20.004Z,25.33
2023-02-12T00:47:47.943Z,27.77
2023-02-12T00:50:17.572Z,25.63
2023-02-12T00:52:45.467Z,29.17
2023-02-12T00:55:13.367Z,23.93
2023-02-12T00:57:41.231Z,26.17
2023-02-12T01:00:10.194Z,27.10
2023-02-12T01:02:38.740Z,26.40
2023-02-12T01:05:07.298Z,27.57
2023-02-12T01:07:38.527Z,25.87
2023-02-12T01:10:08.387Z,26.37
2023-02-12T01:12:36.435Z,26.93
2023-02-12T01:15:04.476Z,26.93
2023-02-12T01:17:32.378Z,26.27
2023-02-12T01:20:00.323Z,27.20
2023-02-12T01:22:28.195Z,26.13
2023-02-12T01:24:57.644Z,27.77
2023-02-12T01:27:25.513Z,25.63
2023-02-12T01:29:53.685Z,26.70
2023-02-12T01:32:21.899Z,29.10
2023-02-12T01:34:49.828Z,27.20
2023-02-12T01:37:17.828Z,26.07
2023-02-12T01:39:45.863Z,25.50
2023-02-12T01:42:18.675Z,26.30
2023-02-12T01:44:47.780Z,27.27
2023-02-12T01:47:18.502Z,26.53
2023-02-12T01:49:49.011Z,28.80
2023-02-12T01:52:20.200Z,27.40
2023-02-12T01:54:48.616Z,24.40
2023-02-12T01:57:18.530Z,28.23
2023-02-12T01:59:47.170Z,26.20
2023-02-12T02:02:15.321Z,26.87
2023-02-12T02:04:45.910Z,28.10
2023-02-12T02:07:14.060Z,28.00
2023-02-12T02:09:42.346Z,32.13
2023-02-12T02:12:27.448Z,28.10
2023-02-12T02:14:58.559Z,29.67
2023-02-12T02:17:38.843Z,25.73
2023-02-12T02:20:40.360Z,31.07
2023-02-12T02:23:34.760Z,32.50
2023-02-12T02:26:24.231Z,29.27
2023-02-12T02:29:01.044Z,28.33
2023-02-12T02:31:34.267Z,27.33
2023-02-12T02:34:07.343Z,26.70
2023-02-12T02:36:50.799Z,27.80
2023-02-12T02:39:30.161Z,27.47
2023-02-12T02:42:01.230Z,28.10
2023-02-12T02:44:33.942Z,25.73
2023-02-12T02:47:06.619Z,27.60
2023-02-12T02:49:38.666Z,27.10
2023-02-12T02:52:10.874Z,27.67
2023-02-12T02:54:41.481Z,33.10
2023-02-12T02:57:13.229Z,27.00
2023-02-12T02:59:44.113Z,28.30
2023-02-12T03:02:16.732Z,27.50
2023-02-12T03:04:47.680Z,38.03
2023-02-12T03:07:19.095Z,26.40
2023-02-12T03:09:48.831Z,27.00
2023-02-12T03:12:19.679Z,29.43
2023-02-12T03:14:49.705Z,29.23
2023-02-12T03:17:22.257Z,26.80
2023-02-12T03:19:53.323Z,27.10
2023-02-12T03:22:24.333Z,27.93
2023-02-12T03:24:55.443Z,27.33
2023-02-12T03:27:28.639Z,26.50
2023-02-12T03:29:58.602Z,24.33
2023-02-12T03:32:32.263Z,25.87
2023-02-12T03:35:10.573Z,24.80
2023-02-12T03:37:41.753Z,26.40
2023-02-12T03:40:15.222Z,29.00
2023-02-12T03:42:48.487Z,27.03
2023-02-12T03:45:22.778Z,29.13
2023-02-12T03:47:55.043Z,25.63
2023-02-12T03:50:26.620Z,27.00
2023-02-12T03:52:54.607Z,26.90
2023-02-12T03:55:22.482Z,27.20
2023-02-12T03:57:54.312Z,27.00
2023-02-12T04:00:23.965Z,29.07
2023-02-12T04:02:53.922Z,28.67
2023-02-12T04:05:23.489Z,32.03
2023-02-12T04:07:51.929Z,29.10
2023-02-12T04:10:21.439Z,29.50
2023-02-12T04:12:54.599Z,28.10
2023-02-12T04:15:41.316Z,27.07
2023-02-12T04:18:13.717Z,27.70
2023-02-12T04:20:49.709Z,31.00
2023-02-12T04:23:25.939Z,29.80
2023-02-12T04:25:59.147Z,30.53
2023-02-12T04:28:35.922Z,30.40
2023-02-12T04:31:06.730Z,31.13
2023-02-12T04:33:42.983Z,30.50
2023-02-12T04:36:14.862Z,30.50
2023-02-12T04:38:45.478Z,36.30
2023-02-12T04:41:13.627Z,32.10
2023-02-12T04:43:41.577Z,30.57
2023-02-12T04:46:09.955Z,29.20
2023-02-12T04:48:50.488Z,30.03
2023-02-12T04:51:18.350Z,29.70
2023-02-12T04:53:46.217Z,30.47
2023-02-12T04:56:14.602Z,29.77
2023-02-12T04:58:43.010Z,30.17
2023-02-12T05:01:11.869Z,27.47
2023-02-12T05:03:41.166Z,30.70
2023-02-12T05:06:10.228Z,29.50
2023-02-12T05:08:38.106Z,30.23
2023-02-12T05:11:07.355Z,30.70
2023-02-12T05:13:35.443Z,31.70
2023-02-12T05:16:05.409Z,29.50
2023-02-12T05:18:33.387Z,28.23
2023-02-12T05:21:03.446Z,28.83
2023-02-12T05:23:33.365Z,28.20
2023-02-12T05:26:02.941Z,28.77
2023-02-12T05:28:31.144Z,30.20
2023-02-12T05:31:01.746Z,31.37
2023-02-12T05:33:29.983Z,30.90
2023-02-12T05:36:03.894Z,30.47
2023-02-12T05:38:33.196Z,30.20
2023-02-12T05:41:04.357Z,32.90
2023-02-12T05:43:32.322Z,33.13
2023-02-12T05:46:00.959Z,32.60
2023-02-12T05:48:29.600Z,29.73
2023-02-12T05:51:03.200Z,32.50
2023-02-12T05:53:31.244Z,30.40
2023-02-12T05:56:10.584Z,30.43
2023-02-12T05:58:38.706Z,27.37
2023-02-12T06:01:11.301Z,28.27
2023-02-12T06:03:39.330Z,31.30
2023-02-12T06:06:07.365Z,30.00
2023-02-12T06:08:35.536Z,28.20
2023-02-12T06:11:04.324Z,28.53
2023-02-12T06:13:34.017Z,30.10
2023-02-12T06:16:02.191Z,29.67
2023-02-12T06:18:30.501Z,29.13
2023-02-12T06:20:58.444Z,29.80
2023-02-12T06:23:26.818Z,31.10
2023-02-12T06:25:57.882Z,30.83
2023-02-12T06:28:25.972Z,31.70
2023-02-12T06:30:55.347Z,29.97
2023-02-12T06:33:23.298Z,30.57
2023-02-12T06:35:51.201Z,32.00
2023-02-12T06:38:19.164Z,33.00
2023-02-12T06:40:47.213Z,32.93
2023-02-12T06:43:15.103Z,34.70
2023-02-12T06:45:43.014Z,33.70
2023-02-12T06:48:12.266Z,32.93
2023-02-12T06:50:40.117Z,33.13
2023-02-12T06:53:07.990Z,32.03
2023-02-12T06:55:36.173Z,34.07
2023-02-12T06:58:04.089Z,30.63
2023-02-12T07:00:32.048Z,30.50
2023-02-12T07:03:00.004Z,27.97
2023-02-12T07:05:29.310Z,30.90
2023-02-12T07:07:57.218Z,36.60
2023-02-12T07:10:25.096Z,39.83
2023-02-12T07:12:53.000Z,34.23
2023-02-12T07:15:20.884Z,31.50
2023-02-12T07:17:48.781Z,35.77
2023-02-12T07:20:16.833Z,36.00
2023-02-12T07:22:46.085Z,33.37
2023-02-12T07:25:14.011Z,31.67
2023-02-12T07:27:41.875Z,32.67
2023-02-12T07:30:10.743Z,30.50
2023-02-12T07:32:38.601Z,30.90
2023-02-12T07:35:07.033Z,28.40
2023-02-12T07:37:35.091Z,29.57
2023-02-12T07:40:04.876Z,30.93
2023-02-12T07:42:32.828Z,31.13
2023-02-12T07:45:00.736Z,29.90
2023-02-12T07:47:28.659Z,30.80
2023-02-12T07:49:56.731Z,29.47
2023-02-12T07:52:24.649Z,31.90
2023-02-12T07:54:52.527Z,30.47
2023-02-12T07:57:21.852Z,28.60
2023-02-12T07:59:49.732Z,29.30
2023-02-12T08:02:17.633Z,28.90
2023-02-12T08:04:45.655Z,32.10
2023-02-12T08:07:13.572Z,28.13
2023-02-12T08:09:41.531Z,29.70
2023-02-12T08:12:09.456Z,36.23
2023-02-12T08:14:38.716Z,38.27
2023-02-12T08:17:06.578Z,36.53
2023-02-12T08:19:34.526Z,37.97
2023-02-12T08:22:03.144Z,32.70
2023-02-12T08:24:31.482Z,31.17
2023-02-12T08:26:59.679Z,28.30
2023-02-12T08:29:29.912Z,30.10
2023-02-12T08:32:00.767Z,30.10
2023-02-12T08:34:30.419Z,30.83
2023-02-12T08:36:59.135Z,27.60
2023-02-12T08:39:28.721Z,27.93
2023-02-12T08:41:57.430Z,32.73
2023-02-12T08:44:25.547Z,27.53
2023-02-12T08:46:55.626Z,28.03
2023-02-12T08:49:27.451Z,27.83
2023-02-12T08:51:57.053Z,27.60
2023-02-12T08:54:26.775Z,25.60
2023-02-12T08:56:56.725Z,26.40
2023-02-12T08:59:24.680Z,26.83
2023-02-12T09:01:53.327Z,29.27
2023-02-12T09:04:25.374Z,28.80
2023-02-12T09:06:53.822Z,28.90
2023-02-12T09:09:21.908Z,27.13
2023-02-12T09:11:50.060Z,29.10
2023-02-12T09:14:19.050Z,27.77
2023-02-12T09:16:47.192Z,27.27
2023-02-12T09:19:15.813Z,27.57
2023-02-12T09:21:45.083Z,28.53
2023-02-12T09:24:12.975Z,29.70
2023-02-12T09:26:40.871Z,27.77
2023-02-12T09:29:08.761Z,31.07
2023-02-12T09:31:36.859Z,27.77
2023-02-12T09:34:06.599Z,29.70
2023-02-12T09:36:36.075Z,29.57
2023-02-12T09:39:05.654Z,28.90
2023-02-12T09:42:05.887Z,30.10
2023-02-12T09:44:38.403Z,28.30
2023-02-12T09:47:10.942Z,28.97
2023-02-12T09:49:58.187Z,30.63
2023-02-12T09:52:28.578Z,33.17
2023-02-12T09:54:58.244Z,34.93
2023-02-12T09:57:31.175Z,35.67
2023-02-12T10:00:00.830Z,36.10
2023-02-12T10:02:28.782Z,36.03
2023-02-12T10:05:01.674Z,35.87
2023-02-12T10:07:51.994Z,36.93
2023-02-12T10:10:32.565Z,37.40
2023-02-12T10:13:05.418Z,37.07
2023-02-12T10:15:43.170Z,38.20
2023-02-12T10:18:35.999Z,35.43
2023-02-12T10:21:08.876Z,35.47
2023-02-12T10:24:00.743Z,36.97
2023-02-12T10:26:33.289Z,35.60
2023-02-12T10:29:10.742Z,37.97
2023-02-12T10:31:42.182Z,36.40
2023-02-12T10:34:17.436Z,37.43
2023-02-12T10:36:47.372Z,37.67
2023-02-12T10:39:21.438Z,36.03
2023-02-12T10:41:55.898Z,39.33
2023-02-12T10:44:23.775Z,37.47
2023-02-12T10:46:51.764Z,37.33
2023-02-12T10:49:21.394Z,39.97
2023-02-12T10:52:05.050Z,38.10
2023-02-12T10:54:36.054Z,37.80
2023-02-12T10:57:18.684Z,35.77
2023-02-12T10:59:48.228Z,35.93
2023-02-12T11:02:30.782Z,39.93
2023-02-12T11:05:00.377Z,36.63
2023-02-12T11:07:29.319Z,37.97
2023-02-12T11:09:58.263Z,37.47
2023-02-12T11:12:37.705Z,39.60
2023-02-12T11:15:13.880Z,37.13
2023-02-12T11:17:43.692Z,35.63
2023-02-12T11:20:34.744Z,37.13
2023-02-12T11:23:05.885Z,36.80
2023-02-12T11:25:36.049Z,36.80
2023-02-12T11:28:14.642Z,37.90
2023-02-12T11:30:51.523Z,38.10
2023-02-12T11:33:28.018Z,34.60
2023-02-12T11:35:58.035Z,39.83
2023-02-12T11:38:29.439Z,37.03
2023-02-12T11:41:00.596Z,39.23
2023-02-12T11:43:31.504Z,37.50
2023-02-12T11:46:00.706Z,36.47
2023-02-12T11:48:31.557Z,37.07
2023-02-12T11:51:02.859Z,40.37
2023-02-12T11:53:32.916Z,38.40
2023-02-12T11:56:02.928Z,36.80
2023-02-12T11:58:32.465Z,39.13
2023-02-12T12:01:07.389Z,40.53
2023-02-12T12:03:40.447Z,41.00
2023-02-12T12:06:14.272Z,40.37
2023-02-12T12:08:45.582Z,39.20
2023-02-12T12:11:17.586Z,41.00
2023-02-12T12:13:51.113Z,39.67
2023-02-12T12:16:41.663Z,40.27
2023-02-12T12:19:31.557Z,40.63
2023-02-12T12:22:05.360Z,41.83
2023-02-12T12:24:41.214Z,39.00
2023-02-12T12:27:41.400Z,39.47
2023-02-12T12:30:19.735Z,39.53
2023-02-12T12:32:49.123Z,37.50
2023-02-12T12:35:20.432Z,39.37
2023-02-12T12:37:49.870Z,37.73
2023-02-12T12:40:27.347Z,38.80
2023-02-12T12:43:04.740Z,40.23
2023-02-12T12:45:48.761Z,38.93
2023-02-12T12:48:27.092Z,37.77
2023-02-12T12:51:09.547Z,37.53
2023-02-12T12:53:47.657Z,38.73
2023-02-12T12:56:39.346Z,37.23
2023-02-12T12:59:26.080Z,38.50
2023-02-12T13:02:31.162Z,37.23
2023-02-12T13:05:20.231Z,36.70
2023-02-12T13:07:56.635Z,35.30
2023-02-12T13:10:33.514Z,36.90
2023-02-12T13:13:23.383Z,33.77
2023-02-12T13:15:57.488Z,37.30
2023-02-12T13:18:34.410Z,35.67
2023-02-12T13:21:06.001Z,34.13
2023-02-12T13:23:39.164Z,32.87
2023-02-12T13:26:14.509Z,34.13
2023-02-12T13:28:44.925Z,33.73
2023-02-12T13:31:32.661Z,34.57
2023-02-12T13:34:05.568Z,35.70
2023-02-12T13:36:34.738Z,31.00
2023-02-12T13:39:08.905Z,32.80
2023-02-12T13:41:37.409Z,35.37
2023-02-12T13:44:17.504Z,33.70
2023-02-12T13:46:52.549Z,36.60
2023-02-12T13:49:32.722Z,34.27
2023-02-12T13:52:04.286Z,32.80
2023-02-12T13:54:47.358Z,34.27
2023-02-12T13:57:17.207Z,35.97
2023-02-12T13:59:50.099Z,34.93
2023-02-12T14:02:52.088Z,34.67
2023-02-12T14:05:27.694Z,38.50
2023-02-12T14:07:57.795Z,38.83
2023-02-12T14:10:28.484Z,37.40
2023-02-12T14:12:58.324Z,38.90
2023-02-12T14:15:33.939Z,35.77
2023-02-12T14:18:39.573Z,34.73
2023-02-12T14:21:45.855Z,35.50
2023-02-12T14:24:52.639Z,36.20
2023-02-12T14:27:25.929Z,34.17
2023-02-12T14:30:25.829Z,34.47
2023-02-12T14:32:59.921Z,35.13
2023-02-12T14:35:35.417Z,45.67
2023-02-12T14:38:04.798Z,40.13
2023-02-12T14:40:44.267Z,34.73
2023-02-12T14:43:34.003Z,37.30
2023-02-12T14:46:34.973Z,37.70
2023-02-12T14:49:05.940Z,36.27
2023-02-12T14:51:39.180Z,35.93
2023-02-12T14:54:15.254Z,37.60
2023-02-12T14:56:47.076Z,40.47
2023-02-12T14:59:19.050Z,38.47
2023-02-12T15:01:47.406Z,40.80
2023-02-12T15:04:20.664Z,42.57
2023-02-12T15:06:52.327Z,42.40
2023-02-12T15:09:24.015Z,43.63
2023-02-12T15:12:04.312Z,43.80
2023-02-12T15:14:36.869Z,40.23
2023-02-12T15:17:10.107Z,42.23
2023-02-12T15:19:43.951Z,36.93
2023-02-12T15:22:23.660Z,39.30
2023-02-12T15:24:52.065Z,40.73
2023-02-12T15:27:21.047Z,43.83
2023-02-12T15:29:52.545Z,41.17
2023-02-12T15:32:24.699Z,40.67
2023-02-12T15:34:52.887Z,41.47
2023-02-12T15:37:24.466Z,43.47
2023-02-12T15:39:54.556Z,46.67
2023-02-12T15:42:28.611Z,44.33
2023-02-12T15:45:09.637Z,42.93
2023-02-12T15:47:37.537Z,40.77
2023-02-12T15:50:06.207Z,37.93
2023-02-12T15:52:36.248Z,38.47
2023-02-12T15:55:05.620Z,40.53
2023-02-12T15:57:33.833Z,48.10
2023-02-12T16:00:08.430Z,36.60
2023-02-12T16:02:36.352Z,38.03
2023-02-12T16:05:05.821Z,36.70
2023-02-12T16:07:37.229Z,37.80
2023-02-12T16:10:06.195Z,36.00
2023-02-12T16:12:37.587Z,34.70
2023-02-12T16:15:08.957Z,42.83
2023-02-12T16:17:38.337Z,42.53
2023-02-12T16:20:24.810Z,43.50
2023-02-12T16:22:53.373Z,38.77
2023-02-12T16:25:24.398Z,36.57
2023-02-12T16:28:00.371Z,36.20
2023-02-12T16:30:31.574Z,36.17
2023-02-12T16:32:59.796Z,35.47
2023-02-12T16:35:30.715Z,39.60
2023-02-12T16:38:04.291Z,32.33
2023-02-12T16:40:35.066Z,51.57
2023-02-12T16:43:07.871Z,40.00
2023-02-12T16:45:42.604Z,38.20
2023-02-12T16:48:16.937Z,37.73
2023-02-12T16:50:49.157Z,38.47
2023-02-12T16:53:43.037Z,38.43
2023-02-12T16:56:18.111Z,44.20
2023-02-12T16:58:48.405Z,38.90
2023-02-12T17:01:20.393Z,38.30
2023-02-12T17:03:50.520Z,37.67
2023-02-12T17:06:24.322Z,32.13
2023-02-12T17:08:52.585Z,32.10
2023-02-12T17:11:21.037Z,29.60
2023-02-12T17:13:50.794Z,30.10
2023-02-12T17:16:30.400Z,31.00
2023-02-12T17:18:59.717Z,32.00
2023-02-12T17:21:29.428Z,31.10
2023-02-12T17:23:57.363Z,30.70
2023-02-12T17:26:26.045Z,32.13
2023-02-12T17:28:53.942Z,32.73
2023-02-12T17:31:24.301Z,30.10
2023-02-12T17:33:52.245Z,30.30
2023-02-12T17:36:21.096Z,31.30
2023-02-12T17:38:51.176Z,30.43
2023-02-12T17:41:19.323Z,32.40
2023-02-12T17:43:47.451Z,32.57
2023-02-12T17:46:20.310Z,30.97
2023-02-12T17:48:49.693Z,29.17
2023-02-12T17:51:17.884Z,26.80
2023-02-12T17:53:46.375Z,27.00
2023-02-12T17:56:16.118Z,24.83
2023-02-12T17:58:44.290Z,22.50
2023-02-12T18:01:14.982Z,23.77
2023-02-12T18:03:43.225Z,24.87
2023-02-12T18:06:14.265Z,25.27
2023-02-12T18:08:42.259Z,25.37
2023-02-12T18:11:11.706Z,25.90
2023-02-12T18:13:41.044Z,24.47
2023-02-12T18:16:10.391Z,25.40
2023-02-12T18:18:40.086Z,26.40
2023-02-12T18:21:08.893Z,28.23
2023-02-12T18:23:38.477Z,31.00
2023-02-12T18:26:07.785Z,37.67
2023-02-12T18:28:36.520Z,32.77
2023-02-12T18:31:05.573Z,26.30
2023-02-12T18:33:33.932Z,24.73
2023-02-12T18:36:03.173Z,23.53
2023-02-12T18:38:31.228Z,21.90
2023-02-12T18:41:00.899Z,20.67
2023-02-12T18:43:29.192Z,19.80
2023-02-12T18:45:57.117Z,21.13
2023-02-12T18:48:25.084Z,26.87
2023-02-12T18:50:55.279Z,27.70
2023-02-12T18:53:23.384Z,25.70
2023-02-12T18:55:52.401Z,22.50
2023-02-12T18:58:21.667Z,24.73
2023-02-12T19:00:49.699Z,27.20
2023-02-12T19:03:17.988Z,24.83
2023-02-12T19:05:45.896Z,26.20
2023-02-12T19:08:14.124Z,24.60
2023-02-12T19:10:42.560Z,23.80
2023-02-12T19:13:10.664Z,24.90
2023-02-12T19:15:41.309Z,27.23
2023-02-12T19:18:09.226Z,24.77
2023-02-12T19:20:40.887Z,25.73
2023-02-12T19:23:08.804Z,24.83
2023-02-12T19:25:39.686Z,26.10
2023-02-12T19:28:07.608Z,27.17
2023-02-12T19:30:37.231Z,25.87
2023-02-12T19:33:07.122Z,25.20
2023-02-12T19:35:35.541Z,24.73
2023-02-12T19:38:03.440Z,25.30
2023-02-12T19:40:32.158Z,21.70
2023-02-12T19:43:00.056Z,22.33
2023-02-12T19:45:27.995Z,23.63
2023-02-12T19:47:55.895Z,23.23
2023-02-12T19:50:25.194Z,25.80
2023-02-12T19:52:53.079Z,20.90
2023-02-12T19:55:21.118Z,19.97
2023-02-12T19:57:49.741Z,19.80
2023-02-12T20:00:17.894Z,20.53
2023-02-12T20:02:45.836Z,16.77
2023-02-12T20:05:13.765Z,17.30
2023-02-12T20:07:43.052Z,19.27
2023-02-12T20:10:13.055Z,18.80
2023-02-12T20:12:41.208Z,18.80
2023-02-12T20:15:09.950Z,20.20
2023-02-12T20:17:37.846Z,20.53
2023-02-12T20:20:07.454Z,19.80
2023-02-12T20:22:36.817Z,20.53
2023-02-12T20:25:06.580Z,23.50
2023-02-12T20:27:35.365Z,21.23
2023-02-12T20:30:03.286Z,22.77
2023-02-12T20:32:31.155Z,22.67
2023-02-12T20:34:59.068Z,27.90
2023-02-12T20:37:26.961Z,24.03
2023-02-12T20:39:54.848Z,23.60
2023-02-12T20:42:24.124Z,22.57
2023-02-12T20:44:52.009Z,22.37
2023-02-12T20:47:19.912Z,20.90
2023-02-12T20:49:47.799Z,18.43
2023-02-12T20:52:15.823Z,22.40
2023-02-12T20:54:43.826Z,23.50
2023-02-12T20:57:12.120Z,24.13
2023-02-12T20:59:41.620Z,21.73
2023-02-12T21:02:10.967Z,21.30
2023-02-12T21:04:39.017Z,20.30
2023-02-12T21:07:06.924Z,21.50
2023-02-12T21:09:34.862Z,19.90
2023-02-12T21:12:02.779Z,21.97
2023-02-12T21:14:30.703Z,26.33
2023-02-12T21:16:59.967Z,20.87
2023-02-12T21:19:28.318Z,31.57
2023-02-12T21:21:56.478Z,15.27
2023-02-12T21:24:26.415Z,17.90
2023-02-12T21:26:54.988Z,14.93
2023-02-12T21:29:23.448Z,14.83
2023-02-12T21:31:51.896Z,14.80
2023-02-12T21:34:23.108Z,14.33
2023-02-12T21:36:51.788Z,13.67
2023-02-12T21:39:24.877Z,16.70
2023-02-12T21:41:54.640Z,16.80
2023-02-12T21:44:23.469Z,18.47
2023-02-12T21:46:51.478Z,18.13
2023-02-12T21:49:26.593Z,17.93
2023-02-12T21:51:56.047Z,17.80
2023-02-12T21:54:24.113Z,17.00
2023-02-12T21:56:52.558Z,17.10
2023-02-12T21:59:20.831Z,15.90
2023-02-12T22:01:49.973Z,14.63
2023-02-12T22:04:18.816Z,15.90
2023-02-12T22:06:49.733Z,13.87
2023-02-12T22:09:19.531Z,17.17
2023-02-12T22:11:47.441Z,17.00
2023-02-12T22:14:16.834Z,18.40
2023-02-12T22:16:45.504Z,15.77
2023-02-12T22:19:13.507Z,13.27
2023-02-12T22:21:42.388Z,13.30
2023-02-12T22:24:14.676Z,12.77
2023-02-12T22:26:42.956Z,12.37
2023-02-12T22:29:12.141Z,12.27
2023-02-12T22:31:41.541Z,13.90
2023-02-12T22:34:13.112Z,19.07
2023-02-12T22:36:41.371Z,17.30
2023-02-12T22:39:11.386Z,16.10
2023-02-12T22:41:39.982Z,15.23
2023-02-12T22:44:08.014Z,15.00
2023-02-12T22:46:36.227Z,14.20
2023-02-12T22:49:04.241Z,13.70
2023-02-12T22:51:33.455Z,13.30
2023-02-12T22:54:01.923Z,14.70
2023-02-12T22:56:31.180Z,14.10
2023-02-12T22:59:00.641Z,13.37
2023-02-12T23:01:29.408Z,14.10
2023-02-12T23:03:57.443Z,14.80
2023-02-12T23:06:27.910Z,11.33
2023-02-12T23:08:58.926Z,12.00
2023-02-12T23:11:28.115Z,12.17
2023-02-12T23:13:58.133Z,11.37
2023-02-12T23:16:26.374Z,9.60
2023-02-12T23:18:56.694Z,9.47
2023-02-12T23:21:25.944Z,11.90
2023-02-12T23:23:53.971Z,13.20
2023-02-12T23:26:22.006Z,12.43
2023-02-12T23:28:49.920Z,10.30
2023-02-12T23:31:19.302Z,11.77
2023-02-12T23:33:47.316Z,9.90
2023-02-12T23:36:15.316Z,11.50
2023-02-12T23:38:43.224Z,12.57
2023-02-12T23:41:11.424Z,13.33
2023-02-12T23:43:39.298Z,13.90
2023-02-12T23:46:08.242Z,12.97
2023-02-12T23:48:37.575Z,12.57
2023-02-12T23:51:05.929Z,9.93
2023-02-12T23:53:33.826Z,10.83
2023-02-12T23:56:01.716Z,9.43
2023-02-12T23:58:29.747Z,9.93
